createdAt,value
2023-05-06T00:00:31.763Z,18.71
2023-05-06T00:03:34.721Z,18.76
2023-05-06T00:06:37.277Z,18.78
2023-05-06T00:09:39.413Z,18.72
2023-05-06T00:12:41.518Z,18.74
2023-05-06T00:15:43.620Z,18.73
2023-05-06T00:18:45.728Z,18.72
2023-05-06T00:21:48.017Z,18.74
2023-05-06T00:24:50.524Z,18.70
2023-05-06T00:27:53.661Z,18.66
2023-05-06T00:30:55.794Z,18.61
2023-05-06T00:33:57.917Z,18.60
2023-05-06T00:37:00.128Z,18.55
2023-05-06T00:40:03.642Z,18.58
2023-05-06T00:43:06.431Z,18.57
2023-05-06T00:46:11.986Z,18.48
2023-05-06T00:49:14.869Z,18.48
2023-05-06T00:52:18.793Z,18.49
2023-05-06T00:55:22.233Z,18.60
2023-05-06T00:58:24.373Z,18.67
2023-05-06T01:01:27.894Z,18.61
2023-05-06T01:04:31.251Z,18.58
2023-05-06T01:07:58.174Z,18.54
2023-05-06T01:11:28.137Z,18.47
2023-05-06T01:14:56.375Z,18.47
2023-05-06T01:18:01.118Z,18.36
2023-05-06T01:21:05.576Z,18.47
2023-05-06T01:24:07.774Z,18.40
2023-05-06T01:27:11.825Z,18.37
2023-05-06T01:30:16.247Z,18.35
2023-05-06T01:33:39.953Z,18.35
2023-05-06T01:37:11.039Z,18.29
2023-05-06T01:40:15.526Z,18.28
2023-05-06T01:43:19.814Z,18.22
2023-05-06T01:46:22.791Z,18.22
2023-05-06T01:49:27.838Z,18.25
2023-05-06T01:52:29.912Z,18.24
2023-05-06T01:55:32.458Z,18.26
2023-05-06T01:58:34.967Z,18.26
2023-05-06T02:01:37.121Z,18.27
2023-05-06T02:04:39.903Z,18.30
2023-05-06T02:07:43.371Z,18.28
2023-05-06T02:10:47.417Z,18.13
2023-05-06T02:13:49.858Z,18.07
2023-05-06T02:16:55.614Z,18.08
2023-05-06T02:19:58.936Z,18.05
2023-05-06T02:23:01.094Z,18.00
2023-05-06T02:26:05.689Z,17.99
2023-05-06T02:29:08.477Z,17.97
2023-05-06T02:32:10.602Z,18.03
2023-05-06T02:35:12.872Z,18.01
2023-05-06T02:38:14.932Z,18.02
2023-05-06T02:41:17.055Z,18.04
2023-05-06T02:44:20.403Z,18.01
2023-05-06T02:47:22.540Z,17.96
2023-05-06T02:50:24.661Z,17.92
2023-05-06T02:53:26.729Z,17.91
2023-05-06T02:56:28.783Z,17.91
2023-05-06T02:59:31.228Z,17.84
2023-05-06T03:02:34.708Z,17.80
2023-05-06T03:05:36.839Z,17.80
2023-05-06T03:08:39.055Z,17.79
2023-05-06T03:11:42.688Z,17.78
2023-05-06T03:14:45.027Z,17.78
2023-05-06T03:17:48.040Z,17.74
2023-05-06T03:20:51.357Z,17.79
2023-05-06T03:23:54.865Z,17.79
2023-05-06T03:27:02.546Z,17.75
2023-05-06T03:30:05.827Z,17.70
2023-05-06T03:33:08.935Z,17.72
2023-05-06T03:36:13.433Z,17.69
2023-05-06T03:39:17.791Z,17.73
2023-05-06T03:42:20.848Z,17.78
2023-05-06T03:45:25.711Z,18.33
2023-05-06T03:48:29.239Z,18.49
2023-05-06T03:51:33.176Z,18.57
2023-05-06T03:54:36.957Z,18.48
2023-05-06T03:57:40.568Z,18.56
2023-05-06T04:00:46.868Z,18.45
2023-05-06T04:03:49.138Z,18.32
2023-05-06T04:06:51.268Z,18.28
2023-05-06T04:09:53.592Z,18.18
2023-05-06T04:12:56.303Z,18.19
2023-05-06T04:16:11.605Z,18.20
2023-05-06T04:19:18.011Z,18.12
2023-05-06T04:22:21.496Z,18.14
2023-05-06T04:25:24.606Z,18.19
2023-05-06T04:28:35.216Z,18.15
2023-05-06T04:31:38.772Z,18.13
2023-05-06T04:34:48.522Z,18.21
2023-05-06T04:37:51.787Z,18.21
2023-05-06T04:40:59.812Z,18.21
2023-05-06T04:44:08.257Z,18.17
2023-05-06T04:47:21.601Z,18.15
2023-05-06T04:50:26.516Z,18.18
2023-05-06T04:53:29.349Z,18.16
2023-05-06T04:56:38.653Z,18.27
2023-05-06T04:59:43.523Z,18.22
2023-05-06T05:02:45.975Z,18.24
2023-05-06T05:05:53.174Z,18.25
2023-05-06T05:09:03.616Z,18.29
2023-05-06T05:12:07.437Z,18.35
2023-05-06T05:15:22.471Z,18.49
2023-05-06T05:18:26.423Z,18.50
2023-05-06T05:21:33.056Z,18.57
2023-05-06T05:24:39.035Z,18.57
2023-05-06T05:27:42.364Z,18.55
2023-05-06T05:30:46.097Z,18.57
2023-05-06T05:33:48.394Z,18.53
2023-05-06T05:36:54.204Z,18.46
2023-05-06T05:39:56.838Z,18.65
2023-05-06T05:42:59.277Z,19.10
2023-05-06T05:46:12.201Z,21.70
2023-05-06T05:49:18.004Z,23.10
2023-05-06T05:52:20.925Z,21.83
2023-05-06T05:55:25.054Z,20.52
2023-05-06T05:58:27.993Z,19.92
2023-05-06T06:01:33.078Z,19.62
2023-05-06T06:04:36.394Z,19.57
2023-05-06T06:07:40.329Z,19.53
2023-05-06T06:10:42.658Z,19.47
2023-05-06T06:13:50.250Z,19.79
2023-05-06T06:16:52.642Z,19.78
2023-05-06T06:19:57.342Z,19.72
2023-05-06T06:23:01.815Z,19.48
2023-05-06T06:26:04.847Z,19.43
2023-05-06T06:29:08.830Z,19.37
2023-05-06T06:32:10.987Z,19.37
2023-05-06T06:35:13.159Z,19.41
2023-05-06T06:38:15.699Z,19.41
2023-05-06T06:41:18.173Z,19.43
2023-05-06T06:44:20.306Z,19.43
2023-05-06T06:47:22.471Z,19.41
2023-05-06T06:50:24.620Z,19.47
2023-05-06T06:53:26.783Z,19.56
2023-05-06T06:56:28.918Z,19.60
2023-05-06T06:59:31.297Z,19.63
2023-05-06T07:02:33.390Z,19.67
2023-05-06T07:05:35.604Z,19.81
2023-05-06T07:08:37.507Z,19.99
2023-05-06T07:11:39.743Z,20.03
2023-05-06T07:14:41.831Z,20.00
2023-05-06T07:17:45.017Z,19.89
2023-05-06T07:20:47.206Z,19.88
2023-05-06T07:23:49.735Z,19.87
2023-05-06T07:26:51.785Z,19.93
2023-05-06T07:29:55.295Z,19.95
2023-05-06T07:33:07.315Z,19.93
2023-05-06T07:36:09.418Z,19.91
2023-05-06T07:39:12.634Z,19.96
2023-05-06T07:42:14.844Z,20.04
2023-05-06T07:45:23.513Z,20.20
2023-05-06T07:48:25.703Z,20.23
2023-05-06T07:51:28.391Z,20.18
2023-05-06T07:54:31.879Z,20.14
2023-05-06T07:57:34.148Z,20.13
2023-05-06T08:00:42.263Z,20.12
2023-05-06T08:03:45.652Z,20.23
2023-05-06T08:06:47.888Z,20.30
2023-05-06T08:09:49.967Z,20.33
2023-05-06T08:12:52.183Z,20.33
2023-05-06T08:15:54.639Z,20.39
2023-05-06T08:18:56.727Z,20.60
2023-05-06T08:21:58.794Z,20.66
2023-05-06T08:25:01.610Z,20.59
2023-05-06T08:28:12.034Z,20.62
2023-05-06T08:31:14.067Z,20.69
2023-05-06T08:34:18.592Z,20.65
2023-05-06T08:37:20.755Z,20.66
2023-05-06T08:41:18.019Z,20.80
2023-05-06T08:44:25.985Z,20.92
2023-05-06T08:47:28.751Z,20.92
2023-05-06T08:50:30.972Z,20.97
2023-05-06T08:53:38.598Z,21.05
2023-05-06T08:56:45.695Z,21.09
2023-05-06T08:59:48.025Z,21.05
2023-05-06T09:02:53.277Z,21.06
2023-05-06T09:05:57.588Z,21.09
2023-05-06T09:09:01.129Z,21.03
2023-05-06T09:12:03.519Z,21.03
2023-05-06T09:15:06.303Z,21.05
2023-05-06T09:18:08.745Z,21.01
2023-05-06T09:21:11.111Z,21.05
2023-05-06T09:24:21.917Z,21.07
2023-05-06T09:27:31.357Z,21.03
2023-05-06T09:30:42.308Z,21.05
2023-05-06T09:33:47.491Z,21.08
2023-05-06T09:36:54.875Z,21.14
2023-05-06T09:40:01.316Z,21.22
2023-05-06T09:43:16.948Z,21.22
2023-05-06T09:46:25.023Z,21.26
2023-05-06T09:49:27.799Z,21.28
2023-05-06T09:52:31.728Z,21.26
2023-05-06T09:55:35.897Z,21.27
2023-05-06T09:58:42.090Z,21.35
2023-05-06T10:01:45.390Z,21.31
2023-05-06T10:04:50.761Z,21.28
2023-05-06T10:07:55.191Z,21.24
2023-05-06T10:11:01.123Z,21.25
2023-05-06T10:14:04.847Z,21.21
2023-05-06T10:17:10.006Z,21.22
2023-05-06T10:20:16.980Z,21.19
2023-05-06T10:23:49.248Z,21.23
2023-05-06T10:26:59.835Z,21.22
2023-05-06T10:30:04.136Z,21.26
2023-05-06T10:33:09.411Z,21.29
2023-05-06T10:36:28.373Z,21.28
2023-05-06T10:39:31.911Z,21.21
2023-05-06T10:42:35.456Z,21.11
2023-05-06T10:46:01.883Z,21.22
2023-05-06T10:49:06.915Z,21.27
2023-05-06T10:52:18.435Z,21.27
2023-05-06T10:55:27.479Z,21.28
2023-05-06T10:58:36.782Z,21.29
2023-05-06T11:01:41.018Z,21.16
2023-05-06T11:04:49.797Z,21.08
2023-05-06T11:07:53.555Z,21.24
2023-05-06T11:10:55.843Z,21.34
2023-05-06T11:14:14.845Z,21.40
2023-05-06T11:17:32.685Z,21.50
2023-05-06T11:20:34.811Z,21.61
2023-05-06T11:24:08.391Z,21.71
2023-05-06T11:27:12.612Z,21.85
2023-05-06T11:30:15.368Z,22.26
2023-05-06T11:33:22.013Z,22.96
2023-05-06T11:36:24.624Z,23.63
2023-05-06T11:39:30.957Z,24.00
2023-05-06T11:42:34.237Z,24.23
2023-05-06T11:45:50.902Z,24.38
2023-05-06T11:48:52.955Z,24.10
2023-05-06T11:51:57.359Z,24.01
2023-05-06T11:54:59.459Z,24.25
2023-05-06T11:58:03.518Z,24.37
2023-05-06T12:01:12.265Z,24.30
2023-05-06T12:04:14.769Z,24.33
2023-05-06T12:07:17.873Z,24.26
2023-05-06T12:10:21.702Z,24.11
2023-05-06T12:13:23.927Z,23.99
2023-05-06T12:16:28.845Z,23.82
2023-05-06T12:19:31.344Z,23.68
2023-05-06T12:22:34.252Z,23.53
2023-05-06T12:25:42.913Z,23.50
2023-05-06T12:28:46.589Z,23.34
2023-05-06T12:31:49.373Z,23.23
2023-05-06T12:34:54.417Z,23.11
2023-05-06T12:37:57.479Z,23.18
2023-05-06T12:40:59.516Z,23.13
2023-05-06T12:44:02.054Z,23.18
2023-05-06T12:47:10.323Z,23.13
2023-05-06T12:50:12.906Z,23.04
2023-05-06T12:53:31.477Z,23.21
2023-05-06T12:56:33.693Z,23.23
2023-05-06T12:59:36.684Z,23.22
2023-05-06T13:02:38.800Z,23.22
2023-05-06T13:05:41.910Z,23.28
2023-05-06T13:08:44.150Z,23.29
2023-05-06T13:11:46.301Z,23.22
2023-05-06T13:14:50.683Z,23.25
2023-05-06T13:17:53.047Z,23.23
2023-05-06T13:20:59.238Z,23.23
2023-05-06T13:24:02.360Z,23.15
2023-05-06T13:27:07.141Z,22.98
2023-05-06T13:30:09.697Z,22.89
2023-05-06T13:33:12.375Z,22.95
2023-05-06T13:36:15.530Z,22.98
2023-05-06T13:39:17.522Z,22.98
2023-05-06T13:42:19.704Z,23.05
2023-05-06T13:45:21.802Z,23.02
2023-05-06T13:48:24.838Z,22.96
2023-05-06T13:51:30.064Z,22.85
2023-05-06T13:54:32.250Z,22.82
2023-05-06T13:57:36.999Z,23.34
2023-05-06T14:00:39.427Z,23.37
2023-05-06T14:03:41.359Z,23.25
2023-05-06T14:06:43.483Z,23.03
2023-05-06T14:09:45.837Z,22.98
2023-05-06T14:12:48.340Z,23.06
2023-05-06T14:15:50.620Z,23.29
2023-05-06T14:18:55.949Z,23.55
2023-05-06T14:21:59.775Z,23.76
2023-05-06T14:25:01.862Z,23.88
2023-05-06T14:28:05.200Z,24.08
2023-05-06T14:31:07.201Z,24.13
2023-05-06T14:34:09.533Z,24.26
2023-05-06T14:37:11.585Z,24.22
2023-05-06T14:40:15.139Z,24.10
2023-05-06T14:43:20.194Z,24.14
2023-05-06T14:46:22.388Z,24.13
2023-05-06T14:49:24.590Z,24.13
2023-05-06T14:52:28.074Z,24.16
2023-05-06T14:55:30.008Z,24.11
2023-05-06T14:58:36.421Z,24.07
2023-05-06T15:01:40.609Z,23.99
2023-05-06T15:04:51.844Z,23.86
2023-05-06T15:07:54.527Z,23.73
2023-05-06T15:10:56.985Z,23.58
2023-05-06T15:13:59.383Z,23.49
2023-05-06T15:17:01.585Z,23.44
2023-05-06T15:20:07.110Z,23.63
2023-05-06T15:23:09.228Z,23.99
2023-05-06T15:26:11.296Z,24.23
2023-05-06T15:29:13.373Z,24.37
2023-05-06T15:32:17.822Z,24.44
2023-05-06T15:35:19.878Z,24.52
2023-05-06T15:38:23.126Z,24.46
2023-05-06T15:41:36.306Z,24.40
2023-05-06T15:44:44.384Z,24.21
2023-05-06T15:47:50.933Z,23.90
2023-05-06T15:50:53.860Z,23.71
2023-05-06T15:53:59.079Z,23.60
2023-05-06T15:57:09.735Z,23.37
2023-05-06T16:00:13.028Z,23.32
2023-05-06T16:03:18.583Z,23.26
2023-05-06T16:06:21.812Z,23.16
2023-05-06T16:09:24.793Z,23.06
2023-05-06T16:12:26.949Z,23.01
2023-05-06T16:15:29.554Z,22.94
2023-05-06T16:18:32.337Z,22.92
2023-05-06T16:21:34.747Z,22.87
2023-05-06T16:24:37.018Z,22.79
2023-05-06T16:27:42.896Z,22.72
2023-05-06T16:34:06.399Z,22.62
2023-05-06T16:37:09.375Z,22.53
2023-05-06T16:40:19.105Z,22.55
2023-05-06T16:43:22.184Z,22.43
2023-05-06T16:46:24.989Z,22.39
2023-05-06T16:49:28.172Z,22.33
2023-05-06T16:52:32.760Z,22.23
2023-05-06T16:55:36.848Z,22.21
2023-05-06T16:58:39.688Z,22.09
2023-05-06T17:01:41.711Z,21.98
2023-05-06T17:04:44.520Z,21.87
2023-05-06T17:07:50.311Z,21.82
2023-05-06T17:10:53.054Z,21.73
2023-05-06T17:13:57.004Z,21.67
2023-05-06T17:17:05.630Z,21.66
2023-05-06T17:20:10.622Z,21.75
2023-05-06T17:23:15.124Z,21.66
2023-05-06T17:26:18.597Z,21.65
2023-05-06T17:29:22.316Z,21.62
2023-05-06T17:32:27.272Z,21.59
2023-05-06T17:35:29.685Z,21.57
2023-05-06T17:38:35.191Z,21.53
2023-05-06T17:41:39.281Z,21.44
2023-05-06T17:44:42.896Z,21.29
2023-05-06T17:47:45.528Z,21.26
2023-05-06T17:50:49.841Z,21.18
2023-05-06T17:53:52.267Z,21.12
2023-05-06T17:56:55.464Z,21.02
2023-05-06T17:59:58.257Z,20.93
2023-05-06T18:03:00.895Z,20.84
2023-05-06T18:06:05.990Z,20.77
2023-05-06T18:09:10.522Z,20.74
2023-05-06T18:12:13.762Z,20.71
2023-05-06T18:15:17.867Z,20.65
2023-05-06T18:18:23.837Z,20.56
2023-05-06T18:21:29.719Z,20.50
2023-05-06T18:24:32.412Z,20.49
2023-05-06T18:27:36.512Z,20.44
2023-05-06T18:30:38.801Z,20.41
2023-05-06T18:33:40.888Z,20.35
2023-05-06T18:36:43.123Z,20.29
2023-05-06T18:39:45.733Z,20.21
2023-05-06T18:42:48.509Z,20.20
2023-05-06T18:45:52.597Z,20.12
2023-05-06T18:48:56.101Z,20.12
2023-05-06T18:51:59.909Z,20.00
2023-05-06T18:55:04.989Z,20.01
2023-05-06T18:58:07.222Z,19.97
2023-05-06T19:01:10.804Z,19.91
2023-05-06T19:04:13.195Z,19.80
2023-05-06T19:07:16.402Z,19.83
2023-05-06T19:10:18.931Z,19.80
2023-05-06T19:13:23.339Z,19.72
2023-05-06T19:16:25.637Z,19.75
2023-05-06T19:19:31.981Z,19.74
2023-05-06T19:22:36.711Z,19.77
2023-05-06T19:25:40.659Z,19.73
2023-05-06T19:28:42.715Z,19.77
2023-05-06T19:31:44.744Z,19.68
2023-05-06T19:34:46.892Z,19.66
2023-05-06T19:38:09.566Z,19.70
2023-05-06T19:41:11.844Z,19.70
2023-05-06T19:44:17.389Z,19.67
2023-05-06T19:47:20.696Z,19.63
2023-05-06T19:50:22.798Z,19.71
2023-05-06T19:53:25.673Z,19.65
2023-05-06T19:56:27.772Z,19.59
2023-05-06T19:59:30.334Z,19.60
2023-05-06T20:02:35.380Z,19.59
2023-05-06T20:05:37.465Z,19.55
2023-05-06T20:08:43.973Z,19.61
2023-05-06T20:11:47.639Z,19.59
2023-05-06T20:14:49.941Z,19.60
2023-05-06T20:17:52.180Z,19.53
2023-05-06T20:20:54.396Z,19.45
2023-05-06T20:23:56.923Z,19.48
2023-05-06T20:26:59.179Z,19.46
2023-05-06T20:30:05.165Z,19.37
2023-05-06T20:33:08.009Z,19.38
2023-05-06T20:36:10.221Z,19.33
2023-05-06T20:39:13.222Z,19.26
2023-05-06T20:42:15.341Z,19.26
2023-05-06T20:45:17.701Z,19.27
2023-05-06T20:48:19.901Z,19.25
2023-05-06T20:51:22.166Z,19.21
2023-05-06T20:54:24.734Z,19.21
2023-05-06T20:57:26.975Z,19.23
2023-05-06T21:00:32.467Z,19.21
2023-05-06T21:03:41.587Z,19.26
2023-05-06T21:06:49.949Z,19.27
2023-05-06T21:09:52.272Z,19.29
2023-05-06T21:12:56.201Z,19.30
2023-05-06T21:15:58.428Z,19.30
2023-05-06T21:19:06.076Z,19.19
2023-05-06T21:22:11.048Z,19.21
2023-05-06T21:25:13.396Z,19.23
2023-05-06T21:28:15.793Z,19.24
2023-05-06T21:31:22.380Z,19.21
2023-05-06T21:34:25.674Z,19.29
2023-05-06T21:37:27.668Z,19.32
2023-05-06T21:40:32.304Z,19.31
2023-05-06T21:43:35.564Z,19.22
2023-05-06T21:46:38.076Z,19.21
2023-05-06T21:49:40.301Z,19.25
2023-05-06T21:52:42.543Z,19.30
2023-05-06T21:55:44.909Z,19.19
2023-05-06T21:58:47.655Z,19.23
2023-05-06T22:01:49.894Z,19.23
2023-05-06T22:04:52.333Z,19.12
2023-05-06T22:07:54.471Z,19.09
2023-05-06T22:10:59.553Z,19.13
2023-05-06T22:14:01.918Z,19.64
2023-05-06T22:17:04.868Z,19.92
2023-05-06T22:20:11.163Z,20.15
2023-05-06T22:23:15.339Z,20.35
2023-05-06T22:26:17.484Z,20.50
2023-05-06T22:29:19.570Z,20.61
2023-05-06T22:32:22.954Z,20.74
2023-05-06T22:35:25.468Z,20.72
2023-05-06T22:38:27.507Z,20.70
2023-05-06T22:41:31.889Z,20.67
2023-05-06T22:44:34.968Z,20.63
2023-05-06T22:47:37.357Z,20.57
2023-05-06T22:50:39.513Z,20.53
2023-05-06T22:53:41.761Z,20.49
2023-05-06T22:56:43.980Z,20.37
2023-05-06T22:59:47.391Z,20.34
2023-05-06T23:02:49.508Z,20.20
2023-05-06T23:05:51.750Z,20.22
2023-05-06T23:08:54.972Z,20.11
2023-05-06T23:11:57.133Z,20.13
2023-05-06T23:15:00.145Z,20.00
2023-05-06T23:18:02.398Z,19.97
2023-05-06T23:21:04.624Z,19.95
2023-05-06T23:24:06.826Z,19.89
2023-05-06T23:27:08.835Z,19.88
2023-05-06T23:30:11.574Z,19.77
2023-05-06T23:33:14.687Z,19.71
2023-05-06T23:36:17.756Z,19.66
2023-05-06T23:39:19.946Z,19.66
2023-05-06T23:42:22.787Z,19.64
2023-05-06T23:45:26.840Z,19.54
2023-05-06T23:48:28.866Z,19.47
2023-05-06T23:51:31.779Z,19.40
2023-05-06T23:54:33.710Z,19.32
2023-05-06T23:57:35.844Z,19.29
